Time;durP1;ratioP1;P1;durP2;ratioP2;P2;SDS_P1;SDS_P2;PMS_P1;PMS_P2;Temp;Humidity;BMP_temperature;BMP_pressure;BME280_temperature;BME280_humidity;BME280_pressure;Samples;Min_cycle;Max_cycle;Signal;HPM_P1;HPM_P2
2022/03/08 00:00:34;;;;;;;0.20;0.20;;;0.20;99.90;;;;;;5118179;27;20369;-90
2022/03/08 00:03:00;;;;;;;0.25;0.25;;;-0.10;99.90;;;;;;5100218;28;20122;-85
2022/03/08 00:05:28;;;;;;;0.20;0.20;;;-0.10;99.90;;;;;;5116808;28;20078;-90
2022/03/08 00:07:55;;;;;;;0.30;0.30;;;0.20;99.90;;;;;;5133836;28;20086;-85
2022/03/08 00:10:23;;;;;;;0.30;0.30;;;-0.20;99.90;;;;;;5117594;28;20107;-85
2022/03/08 00:12:50;;;;;;;0.20;0.20;;;0.60;99.90;;;;;;5117427;28;20035;-86
2022/03/08 00:15:19;;;;;;;0.30;0.30;;;0.90;99.90;;;;;;5116752;28;20384;-84
2022/03/08 00:17:47;;;;;;;0.20;0.20;;;1.00;99.90;;;;;;5134215;28;20031;-85
2022/03/08 00:20:15;;;;;;;0.20;0.20;;;-0.20;99.90;;;;;;5117078;28;20043;-85
2022/03/08 00:22:42;;;;;;;0.30;0.30;;;0.10;99.90;;;;;;5133851;28;20058;-85
2022/03/08 00:25:11;;;;;;;0.30;0.30;;;-0.30;99.90;;;;;;5119179;27;20046;-86
2022/03/08 00:27:38;;;;;;;0.30;0.30;;;0.00;99.90;;;;;;5137528;27;20051;-90
2022/03/08 00:30:06;;;;;;;0.30;0.30;;;1.20;99.90;;;;;;5137586;27;20050;-90
2022/03/08 00:32:33;;;;;;;0.40;0.40;;;-0.40;99.90;;;;;;5138078;27;20032;-85
2022/03/08 00:35:00;;;;;;;0.30;0.30;;;-0.40;99.90;;;;;;5103944;27;20035;-86
2022/03/08 00:37:27;;;;;;;0.30;0.30;;;-0.50;99.90;;;;;;5104380;27;20107;-90
2022/03/08 00:39:53;;;;;;;0.20;0.20;;;0.60;99.90;;;;;;5105045;27;20121;-85
2022/03/08 00:42:20;;;;;;;0.28;0.28;;;0.40;99.90;;;;;;5120786;27;20516;-85
2022/03/08 00:44:48;;;;;;;0.30;0.30;;;-0.60;99.90;;;;;;5104090;27;20380;-85
2022/03/08 00:47:15;;;;;;;0.30;0.30;;;0.20;99.90;;;;;;5137065;27;20043;-85
2022/03/08 00:49:41;;;;;;;0.30;0.30;;;0.80;99.90;;;;;;5104030;27;20445;-90
2022/03/08 00:52:08;;;;;;;0.40;0.40;;;-0.60;99.90;;;;;;5120379;27;20091;-86
2022/03/08 00:54:35;;;;;;;0.30;0.30;;;-0.60;99.90;;;;;;5120991;27;20130;-85
2022/03/08 00:57:03;;;;;;;0.20;0.20;;;0.00;99.90;;;;;;5136797;27;20550;-86
2022/03/08 00:59:30;;;;;;;0.30;0.30;;;-0.60;99.90;;;;;;5104183;27;20039;-85
2022/03/08 01:01:58;;;;;;;0.30;0.30;;;0.30;99.90;;;;;;5137617;27;20043;-85
2022/03/08 01:04:25;;;;;;;0.30;0.30;;;-0.60;99.90;;;;;;5154478;27;20122;-90
2022/03/08 01:06:52;;;;;;;0.35;0.35;;;-0.60;99.90;;;;;;5120637;27;20495;-90
2022/03/08 01:09:18;;;;;;;0.30;0.30;;;-0.70;99.90;;;;;;5103364;27;20035;-85
2022/03/08 01:11:45;;;;;;;0.30;0.30;;;-0.20;99.90;;;;;;5119616;27;20123;-85
2022/03/08 01:14:12;;;;;;;0.30;0.30;;;-0.70;99.90;;;;;;5103165;27;20039;-85
2022/03/08 01:16:38;;;;;;;0.30;0.30;;;0.00;99.90;;;;;;5119869;27;20162;-85
2022/03/08 01:19:06;;;;;;;0.30;0.30;;;-0.70;99.90;;;;;;5103395;27;20038;-85
2022/03/08 01:21:36;;;;;;;0.30;0.30;;;-0.70;99.90;;;;;;5137019;27;20070;-90
2022/03/08 01:24:04;;;;;;;0.30;0.30;;;-0.60;99.90;;;;;;5120470;27;20046;-86
2022/03/08 01:26:31;;;;;;;0.30;0.30;;;-0.70;99.90;;;;;;5103291;27;20074;-89
2022/03/08 01:29:00;;;;;;;0.30;0.30;;;-0.70;99.90;;;;;;5103855;27;20100;-85
2022/03/08 01:31:27;;;;;;;0.30;0.30;;;-0.70;99.90;;;;;;5136534;27;20047;-85
2022/03/08 01:33:57;;;;;;;0.20;0.20;;;-0.70;99.90;;;;;;5120793;27;20039;-89
2022/03/08 01:36:25;;;;;;;0.30;0.30;;;-0.60;99.90;;;;;;5119303;27;20083;-85
2022/03/08 01:38:52;;;;;;;0.30;0.30;;;-0.70;99.90;;;;;;5136704;27;20057;-85
2022/03/08 01:41:19;;;;;;;0.30;0.30;;;0.00;99.90;;;;;;5120220;27;20047;-85
2022/03/08 01:43:46;;;;;;;0.20;0.20;;;-0.70;99.90;;;;;;5153351;27;20039;-85
2022/03/08 01:46:14;;;;;;;0.30;0.30;;;-0.70;99.90;;;;;;5118894;27;20107;-85
2022/03/08 01:48:41;;;;;;;0.30;0.30;;;-0.60;99.90;;;;;;5137211;27;20043;-89
2022/03/08 01:51:08;;;;;;;0.30;0.30;;;-0.80;99.90;;;;;;5120318;27;20043;-88
2022/03/08 01:53:39;;;;;;;0.30;0.30;;;-0.80;99.90;;;;;;5119530;27;20076;-90
2022/03/08 01:56:08;;;;;;;0.30;0.30;;;-0.80;99.90;;;;;;5137565;27;20098;-85
2022/03/08 01:58:37;;;;;;;0.30;0.30;;;-0.90;99.90;;;;;;5136624;27;20035;-85
2022/03/08 02:01:05;;;;;;;0.22;0.22;;;-0.80;99.90;;;;;;5119288;27;20035;-89
2022/03/08 02:03:33;;;;;;;0.22;0.22;;;-0.80;99.90;;;;;;5103094;27;20043;-85
2022/03/08 02:05:59;;;;;;;0.25;0.25;;;0.20;99.90;;;;;;5135865;27;20039;-87
2022/03/08 02:08:26;;;;;;;0.30;0.30;;;-0.90;99.90;;;;;;5135395;27;20066;-85
2022/03/08 02:10:54;;;;;;;0.20;0.20;;;-0.90;99.90;;;;;;5119105;27;20047;-85
2022/03/08 02:13:21;;;;;;;0.30;0.30;;;-0.90;99.90;;;;;;5119540;27;20034;-85
2022/03/08 02:15:52;;;;;;;0.30;0.30;;;-0.90;99.90;;;;;;5135493;27;20408;-85
2022/03/08 02:18:19;;;;;;;0.28;0.28;;;-0.90;99.90;;;;;;5135321;27;20039;-90
2022/03/08 02:20:46;;;;;;;0.50;0.50;;;-0.90;99.90;;;;;;5118952;27;20146;-90
2022/03/08 02:23:13;;;;;;;0.30;0.30;;;0.50;99.90;;;;;;5118443;27;20043;-85
2022/03/08 02:25:40;;;;;;;0.28;0.28;;;-1.00;99.90;;;;;;5118452;27;20657;-89
2022/03/08 02:28:07;;;;;;;0.30;0.30;;;-1.00;99.90;;;;;;5119154;27;20096;-89
2022/03/08 02:30:34;;;;;;;0.30;0.30;;;-1.00;99.90;;;;;;5119333;27;20437;-85
2022/03/08 02:33:01;;;;;;;0.30;0.30;;;-1.00;99.90;;;;;;5136075;27;20043;-85
2022/03/08 02:35:30;;;;;;;0.30;0.30;;;0.40;99.90;;;;;;5134821;27;20042;-85
2022/03/08 02:38:03;;;;;;;0.30;0.30;;;-0.10;99.90;;;;;;5135374;27;20047;-90
2022/03/08 02:40:34;;;;;;;0.30;0.30;;;0.00;99.90;;;;;;5152038;27;20039;-89
2022/03/08 02:43:01;;;;;;;0.20;0.20;;;-1.10;99.90;;;;;;5135397;27;20126;-85
2022/03/08 02:45:28;;;;;;;0.30;0.30;;;0.00;99.90;;;;;;5134977;27;20125;-89
2022/03/08 02:47:55;;;;;;;0.30;0.30;;;0.20;99.90;;;;;;5134290;28;20130;-85
2022/03/08 02:50:22;;;;;;;0.30;0.30;;;-0.20;99.90;;;;;;5134727;27;20130;-85
2022/03/08 02:52:51;;;;;;;0.30;0.30;;;-0.50;99.90;;;;;;5135376;27;20051;-85
2022/03/08 02:55:24;;;;;;;0.40;0.40;;;-1.10;99.90;;;;;;5134895;27;20126;-85
2022/03/08 02:57:51;;;;;;;0.40;0.40;;;-1.10;99.90;;;;;;5134613;27;20115;-85
2022/03/08 03:00:19;;;;;;;0.30;0.30;;;0.10;99.90;;;;;;5117622;27;20510;-89
2022/03/08 03:02:46;;;;;;;0.30;0.30;;;0.20;99.90;;;;;;5135465;27;20514;-90
2022/03/08 03:05:14;;;;;;;0.30;0.30;;;-1.10;99.90;;;;;;5135539;27;20111;-89
2022/03/08 03:07:41;;;;;;;0.40;0.40;;;-1.10;99.90;;;;;;5134422;27;20514;-85
2022/03/08 03:10:13;;;;;;;0.35;0.35;;;0.10;99.90;;;;;;5117337;27;20549;-89
2022/03/08 03:12:40;;;;;;;0.30;0.30;;;-1.10;99.90;;;;;;5134634;27;20078;-88
2022/03/08 03:15:09;;;;;;;0.30;0.30;;;0.20;99.90;;;;;;5101938;27;20138;-89
2022/03/08 03:17:36;;;;;;;0.30;0.30;;;-1.10;99.90;;;;;;5151134;27;20717;-85
2022/03/08 03:20:06;;;;;;;0.30;0.30;;;-0.60;99.90;;;;;;5135184;27;20507;-89
2022/03/08 03:22:33;;;;;;;0.40;0.40;;;-1.20;99.90;;;;;;5134071;27;20395;-89
2022/03/08 03:25:04;;;;;;;0.40;0.40;;;-1.00;99.90;;;;;;5101206;27;20065;-84
2022/03/08 03:27:31;;;;;;;0.40;0.40;;;-1.20;99.90;;;;;;5129769;28;20051;-85
2022/03/08 03:29:57;;;;;;;0.85;0.85;;;-1.00;99.90;;;;;;5113873;28;20089;-89
2022/03/08 03:32:24;;;;;;;0.35;0.35;;;-1.20;99.90;;;;;;5114028;28;20085;-85
2022/03/08 03:34:52;;;;;;;0.30;0.30;;;-1.10;99.90;;;;;;5113481;28;20040;-85
2022/03/08 03:37:18;;;;;;;0.30;0.30;;;-1.20;99.90;;;;;;5113560;28;20071;-90
2022/03/08 03:39:45;;;;;;;0.30;0.30;;;-1.10;99.90;;;;;;5114588;28;20552;-90
2022/03/08 03:42:12;;;;;;;0.40;0.40;;;-1.10;99.90;;;;;;5097508;28;20092;-85
2022/03/08 03:44:39;;;;;;;0.40;0.40;;;-1.10;99.90;;;;;;5113486;28;20046;-89
2022/03/08 03:47:05;;;;;;;0.30;0.30;;;-1.10;99.90;;;;;;5114268;28;20047;-85
2022/03/08 03:49:32;;;;;;;0.35;0.35;;;-1.20;99.90;;;;;;5113398;28;20055;-90
2022/03/08 03:51:59;;;;;;;0.38;0.38;;;0.00;99.90;;;;;;5113531;28;20035;-90
2022/03/08 03:54:26;;;;;;;0.40;0.40;;;-1.20;99.90;;;;;;5113887;28;20027;-84
2022/03/08 03:56:53;;;;;;;0.30;0.30;;;-1.20;99.90;;;;;;5130834;28;20484;-89
2022/03/08 03:59:19;;;;;;;0.40;0.40;;;-0.30;99.90;;;;;;5096728;28;20521;-89
2022/03/08 04:01:46;;;;;;;0.30;0.30;;;-1.20;99.90;;;;;;5130666;28;20051;-89
2022/03/08 04:04:13;;;;;;;0.30;0.30;;;0.10;99.90;;;;;;5097306;28;20047;-89
2022/03/08 04:06:40;;;;;;;0.30;0.30;;;-0.20;99.90;;;;;;5113845;28;20448;-85
2022/03/08 04:09:07;;;;;;;0.30;0.30;;;-1.30;99.90;;;;;;5113890;28;20047;-85
2022/03/08 04:11:34;;;;;;;0.30;0.30;;;-0.70;99.90;;;;;;5130726;28;20046;-85
2022/03/08 04:14:00;;;;;;;0.30;0.30;;;-1.20;99.90;;;;;;5097664;28;20874;-85
2022/03/08 04:16:27;;;;;;;0.30;0.30;;;-0.20;99.90;;;;;;5113944;28;20036;-89
2022/03/08 04:18:54;;;;;;;0.40;0.40;;;-0.20;99.90;;;;;;5147997;28;20046;-89
2022/03/08 04:21:21;;;;;;;0.40;0.40;;;-1.10;99.90;;;;;;5132986;28;20410;-85
2022/03/08 04:23:48;;;;;;;0.30;0.30;;;-0.70;99.90;;;;;;5113316;28;20118;-85
2022/03/08 04:26:15;;;;;;;0.40;0.40;;;-1.60;99.90;;;;;;5096529;28;20483;-91
2022/03/08 04:28:42;;;;;;;0.30;0.30;;;-0.30;99.90;;;;;;5113171;28;20048;-89
2022/03/08 04:31:09;;;;;;;0.30;0.30;;;-1.50;99.90;;;;;;5097048;28;20075;-85
2022/03/08 04:33:35;;;;;;;0.22;0.22;;;-0.30;99.90;;;;;;5112812;28;20168;-85
2022/03/08 04:36:05;;;;;;;0.38;0.38;;;-1.50;99.90;;;;;;5112755;28;20118;-85
2022/03/08 04:38:32;;;;;;;0.30;0.30;;;-1.50;99.90;;;;;;5097146;28;20492;-89
2022/03/08 04:41:02;;;;;;;0.30;0.30;;;-1.60;99.90;;;;;;5113147;28;20044;-85
2022/03/08 04:43:29;;;;;;;0.30;0.30;;;-1.60;99.90;;;;;;5097170;28;20051;-87
2022/03/08 04:45:56;;;;;;;0.38;0.38;;;-1.60;99.90;;;;;;5112745;28;20035;-89
2022/03/08 04:48:22;;;;;;;0.30;0.30;;;-0.10;99.90;;;;;;5113302;28;20046;-85
2022/03/08 04:50:49;;;;;;;0.30;0.30;;;-0.50;99.90;;;;;;5112943;28;20039;-85
2022/03/08 04:53:16;;;;;;;0.30;0.30;;;-1.60;99.90;;;;;;5126174;28;20082;-90
2022/03/08 04:55:43;;;;;;;0.30;0.30;;;-1.80;99.90;;;;;;5095909;28;20032;-90
2022/03/08 04:58:09;;;;;;;0.30;0.30;;;-1.70;99.90;;;;;;5096686;28;20039;-85
2022/03/08 05:00:36;;;;;;;0.30;0.30;;;-1.70;99.90;;;;;;5125866;28;20046;-90
2022/03/08 05:03:03;;;;;;;0.40;0.40;;;-1.70;99.90;;;;;;5089168;28;20096;-85
2022/03/08 05:05:32;;;;;;;0.30;0.30;;;-1.70;99.90;;;;;;5087006;28;20114;-85
2022/03/08 05:07:59;;;;;;;0.30;0.30;;;-0.50;99.90;;;;;;5111430;28;20404;-84
2022/03/08 05:10:26;;;;;;;0.30;0.30;;;-1.70;99.90;;;;;;5112865;28;20090;-85
2022/03/08 05:12:54;;;;;;;0.32;0.32;;;-1.70;99.90;;;;;;5132808;28;20036;-85
2022/03/08 05:15:21;;;;;;;0.30;0.30;;;-1.70;99.90;;;;;;5099778;28;20550;-85
2022/03/08 05:17:47;;;;;;;0.30;0.30;;;-1.70;99.90;;;;;;5110461;28;20074;-90
2022/03/08 05:20:14;;;;;;;0.30;0.30;;;-1.70;99.90;;;;;;5120108;27;20047;-90
2022/03/08 05:22:41;;;;;;;0.40;0.40;;;-1.80;99.90;;;;;;5103163;27;20146;-90
2022/03/08 05:25:08;;;;;;;0.40;0.40;;;-1.70;99.90;;;;;;5137490;27;20075;-85
2022/03/08 05:27:35;;;;;;;0.30;0.30;;;-1.70;99.90;;;;;;5119549;27;20490;-89
2022/03/08 05:30:02;;;;;;;0.50;0.50;;;-1.80;99.90;;;;;;5103989;27;20131;-88
2022/03/08 05:32:29;;;;;;;0.40;0.40;;;-1.70;99.90;;;;;;5136893;27;20126;-85
2022/03/08 05:34:56;;;;;;;0.40;0.40;;;-1.80;99.90;;;;;;5119127;27;20122;-85
2022/03/08 05:37:23;;;;;;;0.40;0.40;;;-1.80;99.90;;;;;;5103464;27;20031;-90
2022/03/08 05:39:49;;;;;;;0.30;0.30;;;-1.80;99.90;;;;;;5119723;27;20487;-86
2022/03/08 05:42:16;;;;;;;0.30;0.30;;;-1.00;99.90;;;;;;5119451;27;20039;-90
2022/03/08 05:44:43;;;;;;;0.40;0.40;;;-1.80;99.90;;;;;;5119236;27;20034;-89
2022/03/08 05:47:10;;;;;;;0.30;0.30;;;-1.80;99.90;;;;;;5119177;27;20043;-85
2022/03/08 05:49:37;;;;;;;0.40;0.40;;;-1.80;99.90;;;;;;5118110;27;20131;-85
2022/03/08 05:52:04;;;;;;;0.30;0.30;;;-1.70;99.90;;;;;;5119469;27;20081;-90
2022/03/08 05:54:31;;;;;;;0.38;0.38;;;-1.70;99.90;;;;;;5119656;27;20046;-90
2022/03/08 05:56:57;;;;;;;0.30;0.30;;;-1.80;99.90;;;;;;5136032;27;20043;-90
2022/03/08 05:59:24;;;;;;;0.30;0.30;;;-1.80;99.90;;;;;;5102542;27;20092;-85
2022/03/08 06:01:51;;;;;;;0.38;0.38;;;-1.80;99.90;;;;;;5101635;27;20144;-86
2022/03/08 06:04:17;;;;;;;0.40;0.40;;;-1.80;99.90;;;;;;5103093;27;20092;-85
2022/03/08 06:06:44;;;;;;;0.40;0.40;;;-1.70;99.90;;;;;;5101899;27;20512;-90
2022/03/08 06:09:11;;;;;;;0.30;0.30;;;-1.40;99.90;;;;;;5102298;27;20043;-85
2022/03/08 06:11:38;;;;;;;0.30;0.30;;;-1.70;99.90;;;;;;5137561;27;20042;-90
2022/03/08 06:14:04;;;;;;;0.30;0.30;;;-1.70;99.90;;;;;;5102179;27;20495;-91
2022/03/08 06:16:31;;;;;;;0.30;0.30;;;-1.70;99.90;;;;;;5102455;27;20585;-90
2022/03/08 06:18:59;;;;;;;0.40;0.40;;;-1.70;99.90;;;;;;5102389;27;20395;-91
2022/03/08 06:21:26;;;;;;;0.25;0.25;;;-1.30;99.90;;;;;;5118951;27;20094;-91
2022/03/08 06:23:52;;;;;;;0.35;0.35;;;-1.70;99.90;;;;;;5117877;27;20081;-86
2022/03/08 06:26:19;;;;;;;0.45;0.45;;;-1.70;99.90;;;;;;5118082;27;20134;-85
2022/03/08 06:28:46;;;;;;;0.40;0.40;;;-1.70;99.90;;;;;;5101417;27;20047;-91
2022/03/08 06:31:12;;;;;;;0.40;0.40;;;-1.70;99.90;;;;;;5101712;27;20031;-89
2022/03/08 06:33:39;;;;;;;0.40;0.40;;;-2.60;99.90;;;;;;5101921;27;20470;-85
2022/03/08 06:36:06;;;;;;;0.40;0.40;;;-0.90;99.90;;;;;;5101485;27;20118;-90
2022/03/08 06:38:33;;;;;;;0.32;0.32;;;-1.20;99.90;;;;;;5135045;27;20132;-90
2022/03/08 06:41:00;;;;;;;0.30;0.30;;;-1.60;99.90;;;;;;5101819;27;20077;-90
2022/03/08 06:43:26;;;;;;;0.35;0.35;;;-1.60;99.90;;;;;;5134884;27;20134;-85
2022/03/08 06:45:53;;;;;;;0.30;0.30;;;-0.30;99.90;;;;;;5101092;27;20527;-84
2022/03/08 06:48:20;;;;;;;0.30;0.30;;;-0.40;99.90;;;;;;5118254;27;20035;-85
2022/03/08 06:50:47;;;;;;;0.30;0.30;;;-1.50;99.90;;;;;;5117634;27;20531;-89
2022/03/08 06:53:13;;;;;;;0.30;0.30;;;-0.10;99.90;;;;;;5135472;27;20127;-84
2022/03/08 06:55:40;;;;;;;0.30;0.30;;;-0.30;99.90;;;;;;5101615;27;20031;-89
2022/03/08 06:58:07;;;;;;;0.40;0.40;;;0.00;99.90;;;;;;5134545;27;20039;-85
2022/03/08 07:00:34;;;;;;;0.30;0.30;;;-1.30;99.90;;;;;;5101136;27;20035;-90
2022/03/08 07:03:00;;;;;;;0.40;0.40;;;0.00;99.90;;;;;;5118101;27;20047;-89
2022/03/08 07:05:28;;;;;;;0.30;0.30;;;;;;;;;;5119465;27;20043;-84
2022/03/08 07:07:54;;;;;;;0.40;0.40;;;-1.10;99.90;;;;;;5135862;27;20078;-85
2022/03/08 07:10:21;;;;;;;0.30;0.30;;;0.20;99.90;;;;;;5117384;27;20079;-85
2022/03/08 07:12:48;;;;;;;0.25;0.25;;;0.20;99.90;;;;;;5117376;27;20038;-86
2022/03/08 07:15:15;;;;;;;1.35;0.60;;;-1.10;99.90;;;;;;5116446;27;20042;-85
2022/03/08 07:17:46;;;;;;;0.20;0.20;;;0.00;99.90;;;;;;5116974;27;20122;-91
2022/03/08 07:20:15;;;;;;;0.30;0.30;;;0.60;99.90;;;;;;5134516;27;20088;-90
2022/03/08 07:22:42;;;;;;;2.65;1.15;;;-0.70;99.90;;;;;;5100781;28;20047;-85
2022/03/08 07:25:10;;;;;;;0.40;0.40;;;-0.70;99.90;;;;;;5090241;27;20126;-90
2022/03/08 07:27:38;;;;;;;0.30;0.30;;;0.70;99.90;;;;;;5108464;28;20504;-90
2022/03/08 07:30:07;;;;;;;0.40;0.40;;;-0.50;99.90;;;;;;5113420;28;20067;-90
2022/03/08 07:32:34;;;;;;;0.30;0.30;;;-0.40;99.90;;;;;;5116280;28;20377;-90
2022/03/08 07:35:01;;;;;;;0.30;0.30;;;-0.30;99.90;;;;;;5096006;28;20070;-90
2022/03/08 07:37:27;;;;;;;0.38;0.38;;;0.40;99.90;;;;;;5093927;28;20063;-85
2022/03/08 07:39:55;;;;;;;0.25;0.25;;;-0.10;99.90;;;;;;5113134;28;20396;-86
2022/03/08 07:42:21;;;;;;;0.40;0.40;;;0.00;99.90;;;;;;5080582;28;20892;-90
2022/03/08 07:44:48;;;;;;;0.30;0.30;;;0.00;99.90;;;;;;5080293;28;20081;-85
2022/03/08 07:47:15;;;;;;;0.30;0.30;;;0.20;99.90;;;;;;5096254;28;20040;-91
2022/03/08 07:49:42;;;;;;;0.30;0.30;;;1.70;99.90;;;;;;5080375;28;20051;-85
2022/03/08 07:52:08;;;;;;;0.30;0.30;;;0.90;99.90;;;;;;5095933;28;20040;-85
2022/03/08 07:54:35;;;;;;;0.30;0.30;;;1.30;99.90;;;;;;5084606;28;20039;-85
2022/03/08 07:57:02;;;;;;;0.30;0.30;;;0.70;99.90;;;;;;5104683;28;20031;-91
2022/03/08 07:59:29;;;;;;;0.40;0.40;;;0.80;99.90;;;;;;5121580;28;20058;-86
2022/03/08 08:01:56;;;;;;;0.30;0.30;;;1.00;99.90;;;;;;5126106;28;20047;-86
2022/03/08 08:04:23;;;;;;;0.25;0.25;;;2.20;99.90;;;;;;5082023;28;20101;-90
2022/03/08 08:06:51;;;;;;;0.30;0.30;;;2.50;99.90;;;;;;5126670;28;20040;-85
2022/03/08 08:09:18;;;;;;;0.20;0.20;;;1.90;99.90;;;;;;5104609;28;20035;-91
2022/03/08 08:11:44;;;;;;;0.20;0.20;;;2.20;99.90;;;;;;5134347;28;20042;-91
2022/03/08 08:14:11;;;;;;;0.30;0.30;;;2.90;99.90;;;;;;5099836;28;20043;-86
2022/03/08 08:16:38;;;;;;;0.20;0.20;;;3.20;99.90;;;;;;5133940;28;20039;-91
2022/03/08 08:19:05;;;;;;;0.30;0.30;;;1.90;99.90;;;;;;5112746;28;20047;-86
2022/03/08 08:21:32;;;;;;;0.22;0.22;;;3.00;99.90;;;;;;5098278;28;20044;-86
2022/03/08 08:24:00;;;;;;;0.20;0.20;;;2.10;99.90;;;;;;5093281;28;20079;-91
2022/03/08 08:26:27;;;;;;;0.20;0.20;;;3.20;99.90;;;;;;5109596;28;20043;-85
2022/03/08 08:28:54;;;;;;;0.20;0.20;;;3.30;99.90;;;;;;5092707;28;20044;-92
2022/03/08 08:31:21;;;;;;;0.28;0.28;;;3.90;99.90;;;;;;5095033;28;20097;-85
2022/03/08 08:33:48;;;;;;;0.20;0.20;;;2.60;99.90;;;;;;5091477;28;20043;-85
2022/03/08 08:36:15;;;;;;;0.20;0.20;;;2.70;99.90;;;;;;5080136;28;20114;-90
2022/03/08 08:38:42;;;;;;;0.20;0.20;;;2.80;99.90;;;;;;5097394;28;20083;-86
2022/03/08 08:41:09;;;;;;;0.55;0.40;;;3.00;99.90;;;;;;5095996;28;20043;-91
2022/03/08 08:43:36;;;;;;;0.15;0.15;;;4.50;99.90;;;;;;5129674;28;20769;-85
2022/03/08 08:46:03;;;;;;;0.20;0.20;;;4.50;99.90;;;;;;5114272;27;20043;-85
2022/03/08 08:48:30;;;;;;;0.20;0.20;;;3.40;99.90;;;;;;5114713;28;20047;-89
2022/03/08 08:50:56;;;;;;;0.13;0.13;;;3.50;99.90;;;;;;5114175;28;20040;-85
2022/03/08 08:53:23;;;;;;;0.20;0.20;;;3.70;99.90;;;;;;5121577;28;20561;-86
2022/03/08 08:55:50;;;;;;;0.17;0.17;;;4.40;99.90;;;;;;5095070;28;20032;-86
2022/03/08 08:58:17;;;;;;;0.20;0.20;;;4.50;99.90;;;;;;5075603;28;20441;-90
2022/03/08 09:00:44;;;;;;;0.20;0.20;;;4.00;99.90;;;;;;5082325;28;20039;-90
2022/03/08 09:03:14;;;;;;;0.20;0.20;;;4.10;99.90;;;;;;5099383;28;20151;-90
2022/03/08 09:05:45;;;;;;;0.10;0.10;;;4.20;99.90;;;;;;5096269;28;20051;-89
2022/03/08 09:08:14;;;;;;;0.20;0.20;;;4.50;99.90;;;;;;5132430;28;20419;-86
2022/03/08 09:10:41;;;;;;;0.10;0.10;;;4.60;99.90;;;;;;5116494;28;20043;-91
2022/03/08 09:13:08;;;;;;;0.20;0.20;;;4.70;99.90;;;;;;5080017;28;20032;-87
2022/03/08 09:15:35;;;;;;;0.20;0.20;;;5.00;99.90;;;;;;5078932;28;20063;-86
2022/03/08 09:18:05;;;;;;;0.17;0.17;;;5.00;99.90;;;;;;5079272;28;20047;-86
2022/03/08 09:20:32;;;;;;;0.20;0.20;;;5.10;99.90;;;;;;5063363;28;20048;-86
2022/03/08 09:22:59;;;;;;;0.20;0.20;;;5.20;99.90;;;;;;5095707;28;20549;-88
2022/03/08 09:25:26;;;;;;;0.10;0.10;;;5.40;99.90;;;;;;5098350;28;20044;-86
2022/03/08 09:27:53;;;;;;;0.10;0.10;;;5.40;99.90;;;;;;5099585;28;20047;-90
2022/03/08 09:30:23;;;;;;;0.17;0.17;;;6.00;99.90;;;;;;5115150;28;20113;-90
2022/03/08 09:32:50;;;;;;;0.13;0.13;;;5.60;99.90;;;;;;5082865;28;20134;-85
2022/03/08 09:35:17;;;;;;;0.10;0.10;;;5.70;99.90;;;;;;5117866;28;20441;-85
2022/03/08 09:37:43;;;;;;;0.17;0.17;;;5.70;99.90;;;;;;5115271;28;20036;-89
2022/03/08 09:40:10;;;;;;;0.20;0.20;;;6.20;99.90;;;;;;5107713;28;20070;-85
2022/03/08 09:42:37;;;;;;;0.10;0.10;;;5.90;99.90;;;;;;5116062;28;20489;-89
2022/03/08 09:45:04;;;;;;;0.10;0.10;;;6.10;99.90;;;;;;5097965;28;20404;-88
2022/03/08 09:47:31;;;;;;;0.10;0.10;;;6.20;99.90;;;;;;5115216;28;20062;-89
2022/03/08 09:49:58;;;;;;;0.13;0.13;;;6.30;99.90;;;;;;5099167;28;20036;-85
2022/03/08 09:52:25;;;;;;;0.10;0.10;;;6.40;99.90;;;;;;5097988;28;20035;-88
2022/03/08 09:54:52;;;;;;;0.10;0.10;;;6.50;99.90;;;;;;5128101;28;20088;-85
2022/03/08 09:57:22;;;;;;;0.10;0.10;;;6.60;99.90;;;;;;5097530;28;20496;-88
2022/03/08 09:59:49;;;;;;;0.10;0.10;;;6.70;99.90;;;;;;5102750;28;20036;-86
2022/03/08 10:02:15;;;;;;;0.10;0.10;;;6.80;99.90;;;;;;5128543;28;20514;-89
2022/03/08 10:04:42;;;;;;;0.10;0.10;;;6.80;99.90;;;;;;5082646;28;20077;-86
2022/03/08 10:07:11;;;;;;;0.10;0.10;;;6.90;99.90;;;;;;5132276;27;20032;-88
2022/03/08 10:09:38;;;;;;;0.10;0.10;;;7.00;99.90;;;;;;5118883;27;20039;-85
2022/03/08 10:12:16;;;;;;;0.10;0.10;;;7.10;99.90;;;;;;5117797;27;20046;-85
2022/03/08 10:14:44;;;;;;;0.10;0.10;;;7.20;99.90;;;;;;5117450;27;20039;-85
2022/03/08 10:17:35;;;;;;;0.10;0.10;;;7.30;99.90;;;;;;5117482;27;20035;-88
2022/03/08 10:20:02;;;;;;;0.10;0.10;;;7.40;99.90;;;;;;5151803;27;20094;-85
2022/03/08 10:22:32;;;;;;;0.10;0.10;;;7.40;98.90;;;;;;5101335;27;20042;-89
2022/03/08 10:25:31;;;;;;;0.10;0.10;;;7.50;99.70;;;;;;5135886;27;20039;-86
2022/03/08 10:28:01;;;;;;;0.10;0.10;;;7.50;99.90;;;;;;5092643;28;20051;-86
2022/03/08 10:30:43;;;;;;;0.10;0.10;;;7.70;99.70;;;;;;5114335;28;20043;-88
2022/03/08 10:33:19;;;;;;;0.10;0.10;;;7.70;97.80;;;;;;5114981;28;20039;-87
2022/03/08 10:35:50;;;;;;;0.10;0.10;;;7.80;97.80;;;;;;5114568;28;20043;-88
2022/03/08 10:38:19;;;;;;;0.03;0.03;;;7.80;98.20;;;;;;5152925;27;20039;-89
2022/03/08 10:40:46;;;;;;;0.10;0.10;;;7.90;96.20;;;;;;5135400;27;20051;-87
2022/03/08 10:43:15;;;;;;;0.05;0.05;;;7.90;95.80;;;;;;5134197;27;20050;-89
2022/03/08 10:45:47;;;;;;;0.20;0.20;;;8.00;95.60;;;;;;5135058;27;20415;-89
2022/03/08 10:48:17;;;;;;;0.05;0.05;;;8.00;94.20;;;;;;5134253;27;20043;-89
2022/03/08 10:50:46;;;;;;;0.10;0.10;;;8.10;94.80;;;;;;5134571;27;20039;-89
2022/03/08 10:53:13;;;;;;;0.10;0.10;;;8.20;93.70;;;;;;5134135;27;20388;-85
2022/03/08 10:55:50;;;;;;;0.00;0.00;;;8.60;94.20;;;;;;5134376;27;20027;-85
2022/03/08 10:58:19;;;;;;;0.10;0.10;;;8.20;93.90;;;;;;5134005;27;20035;-88
2022/03/08 11:00:54;;;;;;;0.13;0.13;;;8.50;93.20;;;;;;5122165;27;20039;-86
2022/03/08 11:03:25;;;;;;;0.28;0.28;;;8.30;91.10;;;;;;5132953;27;20118;-86
2022/03/08 11:06:04;;;;;;;0.10;0.10;;;8.30;90.70;;;;;;5134380;27;20046;-89
2022/03/08 11:08:32;;;;;;;0.10;0.10;;;8.40;89.30;;;;;;5117756;28;20042;-88
2022/03/08 11:10:59;;;;;;;0.10;0.10;;;8.50;91.90;;;;;;5116873;27;20062;-86
2022/03/08 11:13:26;;;;;;;0.10;0.10;;;8.40;92.00;;;;;;5117996;27;20220;-86
2022/03/08 11:15:53;;;;;;;0.00;0.00;;;8.50;89.20;;;;;;5116598;27;20419;-88
2022/03/08 11:18:19;;;;;;;0.05;0.05;;;8.50;90.00;;;;;;5116482;27;20035;-86
2022/03/08 11:20:47;;;;;;;0.00;0.00;;;8.60;90.60;;;;;;5143696;27;20095;-85
2022/03/08 11:23:14;;;;;;;0.10;0.10;;;8.60;90.40;;;;;;5127259;27;20043;-86
2022/03/08 11:25:46;;;;;;;0.10;0.10;;;8.60;87.30;;;;;;5134963;27;20039;-87
2022/03/08 11:28:13;;;;;;;0.10;0.10;;;8.60;85.70;;;;;;5141915;27;20075;-84
2022/03/08 11:30:42;;;;;;;0.20;0.20;;;8.70;88.40;;;;;;5139601;27;20070;-84
2022/03/08 11:33:33;;;;;;;0.10;0.10;;;8.60;88.50;;;;;;5133222;27;20035;-86
2022/03/08 11:36:08;;;;;;;0.00;0.00;;;8.80;89.40;;;;;;5134631;27;20126;-86
2022/03/08 11:38:35;;;;;;;0.10;0.10;;;8.80;85.20;;;;;;5134599;27;20043;-85
2022/03/08 11:41:02;;;;;;;0.10;0.10;;;8.80;90.70;;;;;;5117071;27;20118;-84
2022/03/08 11:43:47;;;;;;;0.13;0.10;;;8.90;89.40;;;;;;5116714;27;20091;-86
2022/03/08 11:46:18;;;;;;;0.10;0.10;;;8.80;85.00;;;;;;5130701;28;20051;-84
2022/03/08 11:48:56;;;;;;;0.10;0.10;;;8.80;82.70;;;;;;5114143;28;20077;-84
2022/03/08 11:51:25;;;;;;;0.10;0.10;;;8.70;88.00;;;;;;5112997;28;20043;-84
2022/03/08 11:54:09;;;;;;;0.10;0.10;;;8.70;83.70;;;;;;5080197;28;20035;-84
2022/03/08 11:56:47;;;;;;;0.03;0.03;;;8.70;86.20;;;;;;5130892;27;20034;-86
2022/03/08 11:59:14;;;;;;;0.10;0.10;;;8.80;85.90;;;;;;5116027;28;20070;-87
2022/03/08 12:01:41;;;;;;;0.00;0.00;;;8.90;83.00;;;;;;5151020;28;20031;-87
2022/03/08 12:04:09;;;;;;;0.00;0.00;;;9.00;85.30;;;;;;5116701;27;20062;-87
2022/03/08 12:06:37;;;;;;;0.00;0.00;;;9.00;85.70;;;;;;5133312;28;20136;-86
2022/03/08 12:09:18;;;;;;;0.08;0.08;;;8.90;84.20;;;;;;5116833;28;20031;-84
2022/03/08 12:11:51;;;;;;;0.00;0.00;;;9.00;87.20;;;;;;5117288;28;20117;-86
2022/03/08 12:14:24;;;;;;;0.00;0.00;;;9.10;87.60;;;;;;5133799;28;20039;-86
2022/03/08 12:17:04;;;;;;;0.00;0.00;;;9.20;81.10;;;;;;5150855;28;20039;-87
2022/03/08 12:19:35;;;;;;;0.10;0.10;;;9.20;86.50;;;;;;5133909;28;20177;-87
2022/03/08 12:22:07;;;;;;;0.00;0.00;;;9.20;81.90;;;;;;5138295;27;20138;-84
2022/03/08 12:24:55;;;;;;;0.47;0.40;;;9.20;85.70;;;;;;5137246;27;20035;-84
2022/03/08 12:27:24;;;;;;;0.00;0.00;;;9.20;85.70;;;;;;5133654;28;20432;-84
2022/03/08 12:29:58;;;;;;;0.20;0.20;;;9.20;85.70;;;;;;5134463;28;20087;-87
2022/03/08 12:32:32;;;;;;;0.00;0.00;;;9.10;83.00;;;;;;5118508;28;20461;-86
2022/03/08 12:35:03;;;;;;;0.08;0.08;;;9.20;83.60;;;;;;5134685;28;20040;-87
2022/03/08 12:37:36;;;;;;;0.00;0.00;;;9.20;78.60;;;;;;5126477;28;20105;-84
2022/03/08 12:40:05;;;;;;;0.00;0.00;;;9.20;82.70;;;;;;5133910;28;20035;-87
2022/03/08 12:42:34;;;;;;;0.00;0.00;;;9.10;79.40;;;;;;5133097;28;20051;-84
2022/03/08 12:45:07;;;;;;;0.00;0.00;;;9.20;78.70;;;;;;5133865;28;20131;-87
2022/03/08 12:47:46;;;;;;;0.00;0.00;;;9.20;81.20;;;;;;5133659;28;20044;-88
2022/03/08 12:50:16;;;;;;;0.20;0.20;;;9.10;80.50;;;;;;5132866;28;20552;-85
2022/03/08 12:52:53;;;;;;;0.10;0.10;;;9.20;82.40;;;;;;5133277;28;20043;-85
2022/03/08 12:55:26;;;;;;;0.10;0.10;;;9.20;80.30;;;;;;5133091;28;20063;-85
2022/03/08 12:57:55;;;;;;;0.10;0.10;;;9.20;82.00;;;;;;5132820;28;20507;-81